Time;durP1;ratioP1;P1;durP2;ratioP2;P2;SDS_P1;SDS_P2;PMS_P1;PMS_P2;Temp;Humidity;BMP_temperature;BMP_pressure;BME280_temperature;BME280_humidity;BME280_pressure;Samples;Min_cycle;Max_cycle;Signal;HPM_P1;HPM_P2
2021/06/07 00:02:25;;;;;;;5.82;4.30;;;;;;;17.71;51.90;102339.56;4983861;28;114642;-67
2021/06/07 00:04:52;;;;;;;7.00;4.03;;;;;;;17.69;51.87;102346.81;4986750;28;124614;-68
2021/06/07 00:07:19;;;;;;;7.25;4.30;;;;;;;17.66;52.08;102341.59;4983562;28;122920;-67
2021/06/07 00:09:47;;;;;;;7.70;4.28;;;;;;;17.63;52.07;102347.13;5003708;28;113341;-68
2021/06/07 00:12:16;;;;;;;9.20;4.65;;;;;;;17.60;52.32;102341.91;4984705;28;114123;-67
2021/06/07 00:14:44;;;;;;;6.97;4.38;;;;;;;17.58;52.18;102338.44;4981252;28;123963;-67
2021/06/07 00:17:12;;;;;;;8.63;4.53;;;;;;;17.55;52.27;102343.94;4982210;28;124346;-67
2021/06/07 00:19:41;;;;;;;5.65;4.53;;;;;;;17.53;52.37;102345.84;4987915;28;114242;-67
2021/06/07 00:22:09;;;;;;;7.35;4.63;;;;;;;17.50;52.43;102340.66;4977624;28;114376;-67
2021/06/07 00:24:36;;;;;;;6.90;4.72;;;;;;;17.48;52.76;102337.19;4990105;28;124772;-67
2021/06/07 00:27:05;;;;;;;6.68;5.47;;;;;;;17.45;52.51;102337.34;4988308;28;123069;-67
2021/06/07 00:29:33;;;;;;;7.10;5.28;;;;;;;17.42;52.65;102342.84;4990629;28;115026;-68
2021/06/07 00:32:00;;;;;;;8.70;5.07;;;;;;;17.40;52.74;102339.38;4987684;28;115242;-67
2021/06/07 00:34:27;;;;;;;7.35;5.55;;;;;;;17.39;52.92;102343.00;4982702;28;124356;-67
2021/06/07 00:36:54;;;;;;;7.25;5.32;;;;;;;17.36;52.70;102338.66;4984235;28;123582;-67
2021/06/07 00:39:21;;;;;;;7.90;5.75;;;;;;;17.35;52.98;102341.41;4982999;28;114834;-68
2021/06/07 00:41:49;;;;;;;9.30;5.20;;;;;;;17.32;53.04;102348.66;4983037;28;114650;-68
2021/06/07 00:44:20;;;;;;;7.22;5.22;;;;;;;17.29;53.01;102343.47;4982294;28;124124;-68
2021/06/07 00:46:48;;;;;;;6.28;5.43;;;;;;;17.27;53.21;102345.34;4990606;28;124385;-68
2021/06/07 00:49:16;;;;;;;7.95;5.35;;;;;;;17.24;53.15;102345.50;4987309;28;114618;-69
2021/06/07 00:51:45;;;;;;;6.25;5.30;;;;;;;17.22;53.20;102347.38;4985466;28;114215;-68
2021/06/07 00:54:14;;;;;;;8.27;5.45;;;;;;;17.18;53.07;102351.16;4984705;28;124777;-68
2021/06/07 00:56:44;;;;;;;7.95;5.50;;;;;;;17.15;53.17;102345.06;5007193;22;123624;31
2021/06/07 00:59:11;;;;;;;8.32;5.78;;;;;;;17.11;53.28;102347.03;4944494;28;114543;-71
2021/06/07 01:01:41;;;;;;;9.55;5.28;;;;;;;17.07;53.39;102348.13;4944155;28;113829;-71
2021/06/07 01:04:09;;;;;;;7.10;5.40;;;;;;;17.04;53.36;102337.56;4945685;28;124080;-70
2021/06/07 01:06:37;;;;;;;8.57;5.03;;;;;;;17.01;53.48;102343.03;4944690;28;123425;-71
2021/06/07 01:09:05;;;;;;;8.27;5.75;;;;;;;16.96;53.52;102339.75;4944103;28;114139;-73
2021/06/07 01:11:34;;;;;;;6.43;5.13;;;;;;;16.90;53.57;102341.75;4967336;28;113944;-71
2021/06/07 01:14:03;;;;;;;7.13;5.72;;;;;;;16.88;53.69;102343.66;4946666;28;123615;-72
2021/06/07 01:16:30;;;;;;;7.32;5.85;;;;;;;16.84;53.71;102335.81;4944418;28;124685;-71
2021/06/07 01:18:58;;;;;;;6.68;5.43;;;;;;;16.80;53.77;102332.41;4941453;28;116150;-71
2021/06/07 01:21:26;;;;;;;9.02;5.32;;;;;;;16.76;53.87;102333.47;4949776;28;115471;-72
2021/06/07 01:23:55;;;;;;;6.57;5.10;;;;;;;16.73;53.96;102328.28;4949241;28;124072;-72
2021/06/07 01:26:24;;;;;;;7.43;5.93;;;;;;;16.69;53.91;102332.06;4949653;28;122880;-71
2021/06/07 01:28:52;;;;;;;7.75;5.90;;;;;;;16.64;54.01;102324.22;4956243;28;113847;-72
2021/06/07 01:31:19;;;;;;;12.82;5.90;;;;;;;16.61;53.97;102318.16;4966444;28;113398;-71
2021/06/07 01:33:53;;;;;;;6.78;5.35;;;;;;;16.58;53.99;102323.66;4965337;28;124137;-71
2021/06/07 01:36:21;;;;;;;8.63;5.97;;;;;;;16.55;54.05;102324.66;4949881;28;123449;-72
2021/06/07 01:38:48;;;;;;;8.80;5.65;;;;;;;16.50;54.16;102322.22;4949366;28;113370;-72
2021/06/07 01:41:18;;;;;;;8.52;6.03;;;;;;;16.46;54.26;102320.63;4958633;28;113676;-71
2021/06/07 01:43:46;;;;;;;7.38;5.90;;;;;;;16.42;54.30;102327.03;4938610;28;124465;-71
2021/06/07 01:46:13;;;;;;;6.50;5.68;;;;;;;16.40;54.24;102320.03;4946351;28;122818;-71
2021/06/07 01:48:40;;;;;;;7.63;5.85;;;;;;;16.37;54.49;102326.41;4946996;28;114519;-72
2021/06/07 01:51:09;;;;;;;9.30;6.20;;;;;;;16.34;54.57;102326.53;4943985;28;114385;-72
2021/06/07 01:53:37;;;;;;;7.97;5.60;;;;;;;16.32;54.59;102323.06;4941197;28;124289;-71
2021/06/07 01:56:07;;;;;;;9.48;5.93;;;;;;;16.28;54.62;102325.00;4943534;28;123002;-72
2021/06/07 01:58:35;;;;;;;8.50;5.80;;;;;;;16.25;54.68;102322.44;4944328;28;114433;-72
2021/06/07 02:01:15;;;;;;;6.75;5.65;;;;;;;16.22;54.71;102321.72;4943637;28;113226;-71
2021/06/07 02:03:43;;;;;;;9.15;6.10;;;;;;;16.20;54.68;102323.59;4940968;28;123494;-72
2021/06/07 02:06:14;;;;;;;10.07;6.53;;;;;;;16.15;54.89;102319.31;4944306;28;123875;-71
2021/06/07 02:08:41;;;;;;;8.38;6.15;;;;;;;16.14;55.05;102325.63;4940111;28;115066;-72
2021/06/07 02:11:15;;;;;;;10.32;6.53;;;;;;;16.11;55.29;102324.91;4939699;28;115198;-71
2021/06/07 02:13:45;;;;;;;9.13;6.30;;;;;;;16.08;55.22;102323.19;4947550;28;126316;-71
2021/06/07 02:16:15;;;;;;;7.45;5.97;;;;;;;16.06;55.25;102325.09;4940929;28;124655;-71
2021/06/07 02:18:42;;;;;;;8.15;6.15;;;;;;;16.06;55.47;102326.91;4935553;28;114536;-72
2021/06/07 02:21:11;;;;;;;8.25;6.88;;;;;;;16.03;55.27;102330.59;4937165;28;114604;-71
2021/06/07 02:23:38;;;;;;;8.88;6.30;;;;;;;16.03;55.20;102327.03;4948697;28;124522;-71
2021/06/07 02:26:07;;;;;;;10.18;7.22;;;;;;;15.99;55.26;102331.63;4945727;28;123157;-71
2021/06/07 02:28:35;;;;;;;7.20;6.15;;;;;;;15.98;55.24;102335.25;4945342;28;114489;-71
2021/06/07 02:31:04;;;;;;;8.30;6.28;;;;;;;15.94;55.41;102323.81;4941452;28;113340;-72
2021/06/07 02:33:32;;;;;;;10.40;6.82;;;;;;;15.93;55.34;102331.91;4941473;28;123873;-72
2021/06/07 02:35:59;;;;;;;8.68;7.05;;;;;;;15.90;55.48;102332.06;4957936;28;123984;-71
2021/06/07 02:38:26;;;;;;;9.57;6.85;;;;;;;15.88;55.40;102333.91;4944966;28;114487;-71
2021/06/07 02:40:53;;;;;;;8.48;6.60;;;;;;;15.85;55.56;102328.72;4945085;28;114198;-71
2021/06/07 02:43:21;;;;;;;9.70;6.70;;;;;;;15.83;55.52;102334.13;4939092;28;123425;-71
2021/06/07 02:45:48;;;;;;;11.90;6.60;;;;;;;15.80;55.46;102331.56;4962896;28;124204;-72
2021/06/07 02:48:16;;;;;;;7.97;6.63;;;;;;;15.77;55.48;102327.22;4939699;28;117965;-71
2021/06/07 02:50:46;;;;;;;9.05;7.00;;;;;;;15.74;55.45;102331.84;4938424;28;114170;-72
2021/06/07 02:53:16;;;;;;;9.15;6.90;;;;;;;15.71;55.31;102327.47;4940082;28;123898;-71
2021/06/07 02:55:48;;;;;;;9.70;6.95;;;;;;;15.69;55.77;102333.78;4944702;28;123639;-71
2021/06/07 02:58:16;;;;;;;8.27;6.65;;;;;;;15.65;55.56;102338.44;4945694;28;114218;-72
2021/06/07 03:00:54;;;;;;;9.45;7.50;;;;;;;15.61;55.80;102342.13;4936106;28;114121;-71
2021/06/07 03:03:22;;;;;;;9.25;7.38;;;;;;;15.59;56.13;102338.66;4948018;28;124562;-72
2021/06/07 03:05:50;;;;;;;9.57;7.35;;;;;;;15.55;55.99;102342.41;4939514;28;124239;-71
2021/06/07 03:08:24;;;;;;;8.15;6.88;;;;;;;15.53;55.96;102338.94;4949443;28;113207;-72
2021/06/07 03:10:55;;;;;;;7.97;7.07;;;;;;;15.49;55.95;102337.31;4936067;28;115152;-71
2021/06/07 03:13:23;;;;;;;8.20;6.82;;;;;;;15.46;55.91;102348.13;4933779;28;124701;-72
2021/06/07 03:15:53;;;;;;;9.13;6.85;;;;;;;15.43;55.90;102342.94;4939676;28;124624;-72
2021/06/07 03:18:21;;;;;;;10.65;7.10;;;;;;;15.41;55.90;102351.00;4942293;28;113378;-72
2021/06/07 03:20:49;;;;;;;8.93;6.75;;;;;;;15.37;56.00;102350.25;4929226;28;113321;-71
2021/06/07 03:23:19;;;;;;;7.28;6.15;;;;;;;15.34;55.88;102350.38;4949271;28;123983;-71
2021/06/07 03:25:49;;;;;;;9.07;6.07;;;;;;;15.31;55.83;102355.84;4948098;28;124763;-72
2021/06/07 03:28:18;;;;;;;10.40;6.75;;;;;;;15.29;55.76;102351.47;4947583;28;113072;-71
2021/06/07 03:30:46;;;;;;;8.05;6.80;;;;;;;15.28;55.91;102361.31;4945352;28;113300;-72
2021/06/07 03:33:14;;;;;;;9.25;6.43;;;;;;;15.24;55.80;102358.81;4947407;28;124795;-73
2021/06/07 03:35:43;;;;;;;12.77;6.30;;;;;;;15.21;55.93;102362.47;4939131;28;123245;-72
2021/06/07 03:38:13;;;;;;;8.93;6.07;;;;;;;15.19;55.93;102359.00;4947910;28;114690;-72
2021/06/07 03:40:43;;;;;;;8.35;6.57;;;;;;;15.16;55.95;102356.44;4943473;28;114299;-72
2021/06/07 03:43:11;;;;;;;9.23;6.90;;;;;;;15.14;56.09;102358.31;4934848;28;123272;-72
2021/06/07 03:45:38;;;;;;;9.70;7.28;;;;;;;15.13;56.07;102361.94;4941650;28;124308;-72
2021/06/07 03:48:06;;;;;;;11.73;7.15;;;;;;;15.10;56.25;102356.69;4945435;28;115415;-72
2021/06/07 03:50:35;;;;;;;9.18;6.45;;;;;;;15.09;56.07;102365.66;4943682;28;115574;-71
2021/06/07 03:53:03;;;;;;;9.00;7.03;;;;;;;15.07;56.20;102359.47;4935901;28;123949;-72
2021/06/07 03:55:32;;;;;;;8.52;7.00;;;;;;;15.06;56.25;102355.09;4938305;28;124479;-72
2021/06/07 03:58:00;;;;;;;7.97;6.80;;;;;;;15.05;56.17;102364.00;4956100;28;113343;-72
2021/06/07 04:00:29;;;;;;;8.45;7.07;;;;;;;15.03;56.32;102355.19;4940226;28;114256;-72
2021/06/07 04:02:58;;;;;;;9.95;7.82;;;;;;;15.02;56.40;102364.16;4944659;28;124029;-72
2021/06/07 04:05:26;;;;;;;10.95;7.10;;;;;;;15.01;56.59;102367.72;4955130;28;123342;-73
2021/06/07 04:07:55;;;;;;;9.82;7.47;;;;;;;15.01;56.61;102362.41;4935181;28;113091;-72
2021/06/07 04:10:24;;;;;;;11.18;7.75;;;;;;;14.99;56.96;102366.00;4935795;28;113237;-72
2021/06/07 04:12:53;;;;;;;9.07;7.38;;;;;;;15.01;56.90;102362.41;4937539;28;124843;-72
2021/06/07 04:15:22;;;;;;;10.25;7.65;;;;;;;15.01;56.93;102357.06;4941920;28;124128;-72
2021/06/07 04:17:50;;;;;;;9.80;7.07;;;;;;;15.02;57.09;102353.47;4944731;28;114696;-72
2021/06/07 04:20:20;;;;;;;9.25;7.57;;;;;;;15.03;57.06;102365.88;4962493;28;113913;-72
2021/06/07 04:22:47;;;;;;;10.50;7.43;;;;;;;15.04;57.29;102355.13;4939587;28;124178;-72
2021/06/07 04:25:17;;;;;;;9.65;7.50;;;;;;;15.05;57.50;102353.34;4928004;28;123013;-72
2021/06/07 04:27:44;;;;;;;12.27;7.88;;;;;;;15.08;57.44;102355.88;4948400;28;113779;-72
2021/06/07 04:30:15;;;;;;;9.05;7.55;;;;;;;15.11;57.63;102363.78;4952276;28;114429;-72
2021/06/07 04:32:45;;;;;;;10.90;7.65;;;;;;;15.13;57.55;102356.59;4947322;28;123834;-72
2021/06/07 04:35:14;;;;;;;10.00;8.15;;;;;;;15.17;57.84;102363.53;4944370;28;122125;-72
2021/06/07 04:37:49;;;;;;;10.95;7.55;;;;;;;15.20;57.90;102358.09;4949605;28;114280;-72
2021/06/07 04:40:26;;;;;;;8.90;7.28;;;;;;;15.25;57.83;102361.41;4968354;28;114481;-72
2021/06/07 04:42:53;;;;;;;8.35;6.75;;;;;;;15.28;57.87;102363.97;4945114;28;123971;-72
2021/06/07 04:45:22;;;;;;;9.02;6.95;;;;;;;15.34;57.98;102361.03;4958709;28;122929;-72
2021/06/07 04:47:50;;;;;;;11.23;7.53;;;;;;;15.38;58.11;102362.66;4947283;28;113561;-72
2021/06/07 04:50:19;;;;;;;13.07;7.90;;;;;;;15.44;58.14;102360.66;4933350;28;113930;-72
2021/06/07 04:52:57;;;;;;;11.38;7.57;;;;;;;15.50;58.35;102358.63;4959946;28;124092;-72
2021/06/07 04:55:43;;;;;;;12.43;8.27;;;;;;;15.59;58.26;102370.72;4963921;28;123920;-72
2021/06/07 04:58:22;;;;;;;10.45;8.05;;;;;;;15.66;58.03;102366.00;4945717;28;113837;-72
2021/06/07 05:00:52;;;;;;;13.20;8.60;;;;;;;15.72;57.84;102361.25;4947845;28;115257;-72
2021/06/07 05:03:19;;;;;;;10.45;8.20;;;;;;;15.79;57.86;102366.38;4947153;28;123232;-73
2021/06/07 05:05:47;;;;;;;10.70;8.55;;;;;;;15.85;57.92;102366.97;4952172;28;124627;-72
2021/06/07 05:08:14;;;;;;;10.43;9.32;;;;;;;15.91;57.89;102365.84;4942140;28;113688;-72
2021/06/07 05:10:41;;;;;;;10.05;8.57;;;;;;;15.98;57.89;102356.63;4942141;28;113942;-72
2021/06/07 05:13:09;;;;;;;10.73;8.63;;;;;;;16.04;57.77;102361.69;4944724;28;123622;-72
2021/06/07 05:15:36;;;;;;;9.00;7.90;;;;;;;16.07;57.77;102361.56;4946472;28;123890;-72
2021/06/07 05:18:03;;;;;;;10.13;7.75;;;;;;;16.11;57.87;102363.19;4949109;28;114580;-72
2021/06/07 05:20:30;;;;;;;10.73;7.75;;;;;;;16.15;57.82;102364.78;4948444;28;113230;-72
2021/06/07 05:22:59;;;;;;;12.32;7.65;;;;;;;16.20;57.69;102371.72;4944900;28;123833;-72
2021/06/07 05:25:29;;;;;;;9.45;7.90;;;;;;;16.24;57.57;102368.00;4946091;28;123944;-72
2021/06/07 05:27:58;;;;;;;9.65;7.25;;;;;;;16.27;57.40;102367.84;4949980;28;115433;-72
2021/06/07 05:30:27;;;;;;;9.32;6.82;;;;;;;16.34;57.19;102369.31;4944913;28;114692;-72
2021/06/07 05:32:55;;;;;;;8.45;6.60;;;;;;;16.41;57.17;102370.78;4935270;28;123480;-72
2021/06/07 05:35:24;;;;;;;9.25;6.40;;;;;;;16.48;57.10;102372.22;4947214;28;122043;-72
2021/06/07 05:37:51;;;;;;;8.63;6.13;;;;;;;16.54;57.04;102374.63;4948578;28;114170;-72
2021/06/07 05:40:19;;;;;;;10.38;6.43;;;;;;;16.61;57.05;102377.00;4947177;28;114448;-72
2021/06/07 05:42:49;;;;;;;7.80;5.72;;;;;;;16.69;57.06;102380.22;4938340;28;124830;-72
2021/06/07 05:45:16;;;;;;;8.48;5.93;;;;;;;16.75;57.01;102379.91;4940575;28;123735;-71
2021/06/07 05:47:44;;;;;;;10.00;6.50;;;;;;;16.82;56.92;102386.75;4947697;28;113802;-71
2021/06/07 05:50:21;;;;;;;8.00;5.72;;;;;;;16.88;56.46;102381.13;4945215;28;114092;-72
2021/06/07 05:52:49;;;;;;;8.25;5.75;;;;;;;16.95;56.65;102381.69;4937090;28;124741;-72
2021/06/07 05:55:17;;;;;;;9.18;5.57;;;;;;;17.02;56.53;102377.78;4938010;28;123181;-72
2021/06/07 05:57:46;;;;;;;8.18;5.70;;;;;;;17.09;56.17;102379.22;4921360;28;113762;-72
2021/06/07 06:00:17;;;;;;;8.05;5.30;;;;;;;17.18;56.25;102379.72;4939122;28;114253;-73
2021/06/07 06:02:44;;;;;;;5.45;3.90;;;;;;;17.27;55.66;102372.13;4947923;28;124327;-72
2021/06/07 06:05:12;;;;;;;8.52;5.20;;;;;;;17.40;55.66;102382.22;4948219;28;124885;-72
2021/06/07 06:07:39;;;;;;;9.15;5.03;;;;;;;17.52;55.59;102376.28;4943554;28;114439;-72
2021/06/07 06:10:07;;;;;;;7.90;5.20;;;;;;;17.63;55.58;102371.25;4946967;28;114539;-72
2021/06/07 06:12:34;;;;;;;8.63;5.38;;;;;;;17.79;55.84;102381.19;4941614;28;123259;-72
2021/06/07 06:15:03;;;;;;;9.27;4.22;;;;;;;17.94;55.03;102383.09;4943736;28;123179;-72
2021/06/07 06:17:31;;;;;;;7.43;4.30;;;;;;;18.11;54.76;102373.31;4936676;28;114435;-72
2021/06/07 06:19:57;;;;;;;6.25;4.30;;;;;;;18.24;54.84;102369.03;4946399;28;115026;-72
2021/06/07 06:22:25;;;;;;;6.57;4.20;;;;;;;18.40;54.79;102369.06;4944649;28;122115;-72
2021/06/07 06:24:52;;;;;;;4.20;3.60;;;;;;;18.55;53.82;102368.25;4947900;28;123120;-72
2021/06/07 06:27:19;;;;;;;5.38;3.50;;;;;;;18.70;53.51;102366.53;4945118;28;114334;-72
2021/06/07 06:29:46;;;;;;;5.70;3.53;;;;;;;18.86;53.32;102371.97;4945783;28;115797;-72
2021/06/07 06:32:13;;;;;;;4.65;2.78;;;;;;;19.03;52.76;102362.97;4942933;28;124250;-72
2021/06/07 06:34:41;;;;;;;7.68;2.90;;;;;;;19.21;51.84;102366.41;4946741;28;124480;-72
2021/06/07 06:37:09;;;;;;;4.22;3.30;;;;;;;19.33;51.45;102370.25;4941296;28;114518;-72
2021/06/07 06:39:36;;;;;;;5.90;3.05;;;;;;;19.47;51.66;102370.28;4943770;28;113938;-73
2021/06/07 06:42:04;;;;;;;5.63;3.20;;;;;;;19.61;51.31;102364.13;4944462;28;124336;-73
2021/06/07 06:44:31;;;;;;;5.32;3.10;;;;;;;19.77;50.48;102369.47;4927473;28;122768;-73
2021/06/07 06:46:58;;;;;;;5.85;3.30;;;;;;;19.90;50.38;102365.09;4948204;28;114056;-73
2021/06/07 06:49:25;;;;;;;4.60;2.90;;;;;;;20.08;50.14;102367.63;4949168;28;114004;-71
2021/06/07 06:51:54;;;;;;;3.90;3.28;;;;;;;20.23;50.03;102366.69;4944209;28;123301;-72
2021/06/07 06:54:22;;;;;;;4.65;3.42;;;;;;;20.37;49.42;102369.38;4940906;28;123840;-72
2021/06/07 06:56:51;;;;;;;4.53;3.08;;;;;;;20.50;49.24;102368.63;4938798;28;113405;-72
2021/06/07 06:59:18;;;;;;;5.35;2.80;;;;;;;20.65;48.65;102367.69;4944908;28;114530;-72
2021/06/07 07:01:45;;;;;;;5.85;2.20;;;;;;;20.80;48.00;102366.69;5025202;22;124019;-69
2021/06/07 07:04:13;;;;;;;4.55;2.00;;;;;;;20.96;47.64;102363.00;5034766;27;123986;-69
2021/06/07 07:06:40;;;;;;;6.88;1.80;;;;;;;21.11;46.16;102359.31;5038394;27;115620;-70
2021/06/07 07:09:07;;;;;;;5.47;2.03;;;;;;;21.24;45.49;102358.53;5029986;27;115357;-69
2021/06/07 07:11:34;;;;;;;3.20;2.05;;;;;;;21.36;45.65;102357.69;5030690;27;124083;-69
2021/06/07 07:14:02;;;;;;;2.78;1.60;;;;;;;21.47;45.34;102360.56;5038982;27;124077;-69
2021/06/07 07:16:30;;;;;;;5.28;1.73;;;;;;;21.60;45.00;102359.75;5045833;27;114625;-70
2021/06/07 07:18:57;;;;;;;3.15;1.38;;;;;;;21.70;44.14;102358.13;5038066;27;113756;-71
2021/06/07 07:21:24;;;;;;;3.65;1.40;;;;;;;21.79;44.05;102354.81;5040650;27;124130;-69
2021/06/07 07:23:52;;;;;;;4.18;1.60;;;;;;;21.88;43.33;102348.78;5034852;27;123675;-68
2021/06/07 07:26:19;;;;;;;3.40;1.38;;;;;;;21.95;42.67;102350.09;5043393;27;114417;-69
2021/06/07 07:28:46;;;;;;;4.43;1.50;;;;;;;22.03;42.22;102356.81;5036959;27;114125;-69
2021/06/07 07:31:13;;;;;;;4.15;1.20;;;;;;;22.09;41.53;102351.81;5036653;27;124098;-69
2021/06/07 07:33:45;;;;;;;2.78;1.40;;;;;;;22.17;41.99;102359.41;5043891;27;123666;-69
2021/06/07 07:36:13;;;;;;;4.95;1.40;;;;;;;22.26;41.84;102358.78;5042362;27;114066;-69
2021/06/07 07:38:40;;;;;;;3.20;1.30;;;;;;;22.35;41.48;102362.66;5047408;27;113828;-70
2021/06/07 07:41:10;;;;;;;4.10;1.30;;;;;;;22.44;41.64;102362.00;5047016;27;123421;-70
2021/06/07 07:43:39;;;;;;;3.00;1.42;;;;;;;22.53;41.24;102355.09;5045911;27;124314;-69
2021/06/07 07:46:07;;;;;;;2.38;1.00;;;;;;;22.62;40.53;102359.84;5042023;27;114479;-70
2021/06/07 07:48:34;;;;;;;5.15;1.02;;;;;;;22.70;40.82;102357.44;5038835;27;113780;-69
2021/06/07 07:51:02;;;;;;;2.75;1.17;;;;;;;22.82;40.05;102360.22;5036138;27;124361;-71
2021/06/07 07:53:29;;;;;;;2.65;1.27;;;;;;;22.91;39.46;102354.16;5040301;27;124319;-71
2021/06/07 07:55:57;;;;;;;1.73;1.00;;;;;;;22.96;39.29;102356.50;5049208;27;114517;-71
2021/06/07 07:58:24;;;;;;;2.80;1.40;;;;;;;22.99;39.10;102359.84;5050505;27;114055;-71
2021/06/07 08:00:52;;;;;;;3.45;1.15;;;;;;;23.02;38.99;102362.34;5055254;27;124727;-71
2021/06/07 08:03:20;;;;;;;4.45;1.20;;;;;;;23.08;38.82;102361.03;5052984;27;123944;-71
2021/06/07 08:05:47;;;;;;;5.07;1.55;;;;;;;23.11;37.92;102361.69;5054813;27;113792;-71
2021/06/07 08:08:14;;;;;;;3.80;1.42;;;;;;;23.12;38.44;102358.00;5052703;27;114296;-71
2021/06/07 08:10:41;;;;;;;1.98;1.10;;;;;;;23.16;38.65;102363.19;5053936;27;124411;-71
2021/06/07 08:13:08;;;;;;;2.70;1.50;;;;;;;23.23;38.97;102353.63;5053310;27;123921;-70
2021/06/07 08:15:36;;;;;;;2.80;1.48;;;;;;;23.30;38.63;102360.28;5051146;27;114278;-70
2021/06/07 08:18:04;;;;;;;5.13;1.60;;;;;;;23.35;37.98;102347.28;5054847;27;114293;-71
2021/06/07 08:20:32;;;;;;;2.75;1.42;;;;;;;23.38;37.72;102352.47;5040351;27;124499;-71
2021/06/07 08:23:00;;;;;;;3.05;1.30;;;;;;;23.39;37.70;102358.75;5044324;27;124257;-70
2021/06/07 08:25:27;;;;;;;3.28;1.63;;;;;;;23.42;37.77;102348.56;5052403;27;113983;-71
2021/06/07 08:27:54;;;;;;;2.35;1.40;;;;;;;23.45;37.91;102353.75;5054533;27;114011;-70
2021/06/07 08:30:22;;;;;;;2.90;1.48;;;;;;;23.49;37.42;102349.81;5053016;27;123578;-70
2021/06/07 08:32:50;;;;;;;2.88;1.48;;;;;;;23.55;37.31;102353.06;5053262;27;124595;-71
2021/06/07 08:35:18;;;;;;;2.75;1.20;;;;;;;23.60;36.93;102350.84;5054335;27;114630;-71
2021/06/07 08:37:45;;;;;;;1.90;1.20;;;;;;;23.65;36.95;102348.66;5054384;27;114658;-70
2021/06/07 08:40:14;;;;;;;3.08;1.60;;;;;;;23.70;36.65;102341.03;5053404;27;123138;-71
2021/06/07 08:42:43;;;;;;;4.20;1.40;;;;;;;23.77;36.86;102347.72;5052396;27;124585;-70
2021/06/07 08:45:16;;;;;;;3.42;1.73;;;;;;;23.83;36.83;102352.69;5053350;27;115601;-70
2021/06/07 08:47:45;;;;;;;2.22;1.50;;;;;;;23.90;36.69;102353.94;5054027;27;114992;-71
2021/06/07 08:50:14;;;;;;;2.28;1.70;;;;;;;23.96;36.23;102357.13;5054644;27;124356;-70
2021/06/07 08:52:45;;;;;;;3.55;1.63;;;;;;;24.01;36.22;102349.50;5055038;27;123895;-70
2021/06/07 08:55:17;;;;;;;3.78;1.83;;;;;;;24.02;36.07;102348.53;5052210;27;114569;-70
2021/06/07 08:57:47;;;;;;;4.15;1.80;;;;;;;24.05;36.20;102345.56;5041622;27;114255;-70
2021/06/07 09:00:18;;;;;;;3.03;1.80;;;;;;;24.11;36.33;102345.13;5043604;27;126380;-71
2021/06/07 09:02:47;;;;;;;3.15;1.90;;;;;;;24.18;36.58;102335.50;5047604;27;124016;-70
2021/06/07 09:05:18;;;;;;;2.72;1.77;;;;;;;24.25;36.05;102339.44;5049619;27;114647;-71
2021/06/07 09:07:59;;;;;;;2.88;1.48;;;;;;;24.30;36.45;102339.09;5045237;27;114480;-71
2021/06/07 09:10:30;;;;;;;3.97;1.90;;;;;;;24.36;36.21;102343.16;5037347;27;123965;-71
2021/06/07 09:13:02;;;;;;;3.70;1.90;;;;;;;24.42;36.13;102350.78;5040349;27;124057;-71
2021/06/07 09:15:43;;;;;;;6.20;1.98;;;;;;;24.50;36.33;102345.59;5035848;27;114339;-71
2021/06/07 09:18:16;;;;;;;3.65;1.80;;;;;;;24.57;36.69;102341.44;5035636;27;114542;-71
2021/06/07 09:20:44;;;;;;;4.57;1.88;;;;;;;24.65;37.10;102363.34;5051189;27;123848;-71
2021/06/07 09:23:14;;;;;;;2.80;1.88;;;;;;;24.70;36.33;102351.31;5051623;27;123805;-71
2021/06/07 09:25:46;;;;;;;2.85;1.52;;;;;;;24.72;36.27;102343.91;5052588;27;113768;-71
2021/06/07 09:28:18;;;;;;;3.67;1.77;;;;;;;24.79;35.88;102350.53;5044725;27;114097;-71
2021/06/07 09:30:58;;;;;;;4.18;1.77;;;;;;;24.84;36.04;102342.88;5038707;27;124382;-71
2021/06/07 09:33:33;;;;;;;2.92;1.75;;;;;;;24.93;35.86;102347.56;5039935;27;124038;-72
2021/06/07 09:36:06;;;;;;;3.20;1.40;;;;;;;25.00;34.71;102343.34;5054992;27;115024;-71
2021/06/07 09:38:34;;;;;;;2.10;1.35;;;;;;;25.04;35.33;102350.25;5053879;27;114704;-71
2021/06/07 09:41:03;;;;;;;4.35;1.60;;;;;;;25.12;35.27;102346.03;5052348;27;123175;-71
2021/06/07 09:43:50;;;;;;;3.88;1.52;;;;;;;25.19;34.87;102352.69;5052507;27;123943;-72
2021/06/07 09:46:25;;;;;;;2.88;1.40;;;;;;;25.23;34.63;102344.16;5054364;27;113823;-71
2021/06/07 09:49:06;;;;;;;2.35;1.30;;;;;;;25.27;34.08;102349.34;5054033;27;113801;-72
2021/06/07 09:51:34;;;;;;;2.67;1.40;;;;;;;25.32;34.20;102350.69;5051142;27;124671;-72
2021/06/07 09:54:05;;;;;;;3.30;1.50;;;;;;;25.36;33.67;102349.44;5051833;27;124408;-71
2021/06/07 09:56:47;;;;;;;2.90;1.45;;;;;;;25.41;33.92;102346.31;5051933;27;114432;-71
2021/06/07 09:59:33;;;;;;;5.20;1.60;;;;;;;25.45;33.63;102354.09;5051117;27;114059;-72
2021/06/07 10:02:13;;;;;;;4.15;1.83;;;;;;;25.53;33.74;102355.28;5039664;27;123919;-72
2021/06/07 10:04:48;;;;;;;2.53;1.55;;;;;;;25.59;34.40;102352.06;5051908;27;123388;-71
2021/06/07 10:07:16;;;;;;;5.05;1.77;;;;;;;25.65;33.57;102348.81;5052611;27;114642;-72
2021/06/07 10:10:13;;;;;;;4.07;2.20;;;;;;;25.67;33.55;102344.09;5053389;27;114223;-72
2021/06/07 10:12:43;;;;;;;3.08;1.85;;;;;;;25.70;33.34;102345.72;5039814;27;123112;-72
2021/06/07 10:15:13;;;;;;;4.65;1.90;;;;;;;25.69;33.33;102338.53;5047500;27;124637;-71
2021/06/07 10:17:41;;;;;;;2.17;1.80;;;;;;;25.70;32.96;102341.13;5050416;27;114385;-72
2021/06/07 10:22:38;;;;;;;4.30;1.88;;;;;;;25.67;32.43;102335.97;5050690;27;124114;-72
2021/06/07 10:25:07;;;;;;;3.45;1.80;;;;;;;25.67;33.46;102335.97;5040724;27;124397;-71
2021/06/07 10:27:35;;;;;;;2.20;1.65;;;;;;;25.70;33.24;102346.56;5051942;27;115568;-72
2021/06/07 10:30:16;;;;;;;3.58;1.90;;;;;;;25.75;33.18;102336.19;5052928;27;114903;-72
2021/06/07 10:32:44;;;;;;;5.07;2.10;;;;;;;25.84;33.22;102343.53;5050342;27;124101;-72
2021/06/07 10:35:12;;;;;;;2.58;1.67;;;;;;;25.89;33.26;102344.97;5050564;27;124283;-72
2021/06/07 10:38:10;;;;;;;3.67;1.95;;;;;;;25.89;33.18;102336.84;5050402;27;113338;-72
2021/06/07 10:40:42;;;;;;;4.43;2.00;;;;;;;25.88;32.55;102327.84;5045493;27;114980;-72
2021/06/07 10:43:11;;;;;;;2.75;1.90;;;;;;;25.89;33.24;102336.84;5032091;27;124485;-72
2021/06/07 10:45:42;;;;;;;2.85;1.73;;;;;;;25.91;33.20;102327.56;5047064;27;122068;-72
2021/06/07 10:48:12;;;;;;;3.92;1.98;;;;;;;25.98;33.10;102333.34;5052655;27;114600;-72
2021/06/07 10:50:44;;;;;;;3.50;1.80;;;;;;;26.01;32.42;102330.34;5033239;27;114391;-72
2021/06/07 10:53:23;;;;;;;4.47;1.80;;;;;;;26.01;32.97;102335.78;5045108;27;123465;-72
2021/06/07 10:56:04;;;;;;;3.85;1.92;;;;;;;26.06;33.55;102325.38;5048517;27;123961;-71
2021/06/07 10:58:31;;;;;;;2.95;2.20;;;;;;;26.10;33.25;102332.28;5041162;27;114894;-72
2021/06/07 11:01:01;;;;;;;4.90;2.40;;;;;;;26.15;33.98;102324.59;5037280;27;96828;-72
2021/06/07 11:03:32;;;;;;;2.63;2.15;;;;;;;26.23;33.73;102326.63;5042799;27;123597;-72
2021/06/07 11:06:03;;;;;;;4.10;2.55;;;;;;;26.29;33.01;102322.50;5047184;27;124681;-71
2021/06/07 11:08:32;;;;;;;3.13;2.10;;;;;;;26.34;33.50;102322.97;5034791;27;114545;-72
2021/06/07 11:11:02;;;;;;;4.95;2.08;;;;;;;26.38;33.32;102324.41;5030919;27;114299;-72
2021/06/07 11:13:54;;;;;;;2.72;1.63;;;;;;;26.42;33.69;102320.41;5034062;27;123941;-72
2021/06/07 11:16:39;;;;;;;4.55;2.08;;;;;;;26.47;33.51;102315.44;5033105;27;124243;-70
2021/06/07 11:19:09;;;;;;;3.75;1.90;;;;;;;26.54;32.78;102324.75;5029515;27;115646;-70
2021/06/07 11:21:46;;;;;;;3.33;2.28;;;;;;;26.56;33.15;102313.72;5031052;27;115111;-71
2021/06/07 11:24:23;;;;;;;3.15;1.90;;;;;;;26.61;34.04;102315.06;5029617;27;124482;-71
2021/06/07 11:26:50;;;;;;;3.97;1.55;;;;;;;26.70;34.10;102320.69;5033637;27;123875;-70
2021/06/07 11:29:17;;;;;;;3.05;2.10;;;;;;;26.77;32.62;102316.41;5030164;27;114336;-70
2021/06/07 11:32:06;;;;;;;3.58;1.90;;;;;;;26.80;32.91;102317.00;5031632;27;113786;-70